createdAt,value
2018-07-26T00:00:32.856Z,4.53
2018-07-26T00:03:02.287Z,4.90
2018-07-26T00:05:31.136Z,5.10
2018-07-26T00:08:00.680Z,4.87
2018-07-26T00:10:29.488Z,4.90
2018-07-26T00:12:58.283Z,5.20
2018-07-26T00:15:27.105Z,4.27
2018-07-26T00:17:55.888Z,4.60
2018-07-26T00:20:24.775Z,4.53
2018-07-26T00:22:53.586Z,4.63
2018-07-26T00:25:23.080Z,4.70
2018-07-26T00:27:51.853Z,5.30
2018-07-26T00:30:20.679Z,4.83
2018-07-26T00:32:50.245Z,5.27
2018-07-26T00:35:19.275Z,4.90
2018-07-26T00:37:48.743Z,5.00
2018-07-26T00:40:17.780Z,5.50
2018-07-26T00:42:47.628Z,5.70
2018-07-26T00:45:16.704Z,6.73
2018-07-26T00:47:45.908Z,5.03
2018-07-26T00:50:15.385Z,6.13
2018-07-26T00:52:44.199Z,5.23
2018-07-26T00:55:12.985Z,5.87
2018-07-26T00:57:42.302Z,5.77
2018-07-26T01:00:11.835Z,6.70
2018-07-26T01:02:41.677Z,5.53
2018-07-26T01:05:10.513Z,6.10
2018-07-26T01:07:40.095Z,5.33
2018-07-26T01:10:09.442Z,5.90
2018-07-26T01:12:38.168Z,5.40
2018-07-26T01:15:07.831Z,5.10
2018-07-26T01:17:36.616Z,6.23
2018-07-26T01:20:06.163Z,5.87
2018-07-26T01:22:35.446Z,6.17
2018-07-26T01:25:04.689Z,6.13
2018-07-26T01:27:33.481Z,5.97
2018-07-26T01:30:02.257Z,5.40
2018-07-26T01:32:31.619Z,6.03
2018-07-26T01:35:00.553Z,5.67
2018-07-26T01:37:29.911Z,6.43
2018-07-26T01:39:58.668Z,6.07
2018-07-26T01:42:27.455Z,6.07
2018-07-26T01:44:56.311Z,6.10
2018-07-26T01:47:25.248Z,6.27
2018-07-26T01:49:54.158Z,6.00
2018-07-26T01:52:22.999Z,5.90
2018-07-26T01:54:51.751Z,6.67
2018-07-26T01:57:21.039Z,6.20
2018-07-26T01:59:50.668Z,6.67
2018-07-26T02:02:20.971Z,6.53
2018-07-26T02:04:49.682Z,5.97
2018-07-26T02:07:19.607Z,5.97
2018-07-26T02:09:50.067Z,6.60
2018-07-26T02:12:19.164Z,7.50
2018-07-26T02:14:49.375Z,6.90
2018-07-26T02:17:18.409Z,7.00
2018-07-26T02:19:47.592Z,7.40
2018-07-26T02:22:17.933Z,6.70
2018-07-26T02:24:47.930Z,7.10
2018-07-26T02:27:17.403Z,6.63
2018-07-26T02:29:46.660Z,6.93
2018-07-26T02:32:16.879Z,6.17
2018-07-26T02:34:46.036Z,6.93
2018-07-26T02:37:17.142Z,6.77
2018-07-26T02:39:46.218Z,7.10
2018-07-26T02:42:15.019Z,7.10
2018-07-26T02:44:43.854Z,7.00
2018-07-26T02:47:12.703Z,7.57
2018-07-26T02:49:41.671Z,6.93
2018-07-26T02:52:10.460Z,6.60
2018-07-26T02:54:39.216Z,7.67
2018-07-26T02:57:08.599Z,7.40
2018-07-26T02:59:38.092Z,7.27
2018-07-26T03:02:07.790Z,7.17
2018-07-26T03:04:36.553Z,7.10
2018-07-26T03:07:06.271Z,7.33
2018-07-26T03:09:35.704Z,7.40
2018-07-26T03:12:04.462Z,6.97
2018-07-26T03:14:39.381Z,7.60
2018-07-26T03:17:08.169Z,7.30
2018-07-26T03:19:36.975Z,7.17
2018-07-26T03:22:06.621Z,6.97
2018-07-26T03:24:36.139Z,7.40
2018-07-26T03:27:04.927Z,7.50
2018-07-26T03:29:33.782Z,7.20
2018-07-26T03:32:03.209Z,6.93
2018-07-26T03:34:32.021Z,6.37
2018-07-26T03:37:00.839Z,6.83
2018-07-26T03:39:30.140Z,7.33
2018-07-26T03:41:58.921Z,6.97
2018-07-26T03:44:27.736Z,7.47
2018-07-26T03:46:56.595Z,6.80
2018-07-26T03:49:25.392Z,7.03
2018-07-26T03:51:54.302Z,6.17
2018-07-26T03:54:23.172Z,5.93
2018-07-26T03:56:52.880Z,6.30
2018-07-26T03:59:22.489Z,6.70
2018-07-26T04:01:51.856Z,6.93
2018-07-26T04:04:20.648Z,6.30
2018-07-26T04:06:50.053Z,6.27
2018-07-26T04:09:19.491Z,6.63
2018-07-26T04:11:48.543Z,5.80
2018-07-26T04:14:18.330Z,5.97
2018-07-26T04:16:47.347Z,5.80
2018-07-26T04:19:16.613Z,5.90
2018-07-26T04:21:46.485Z,6.70
2018-07-26T04:24:17.046Z,5.97
2018-07-26T04:26:46.846Z,6.27
2018-07-26T04:29:15.612Z,6.87
2018-07-26T04:31:45.430Z,6.53
2018-07-26T04:34:14.399Z,5.77
2018-07-26T04:36:43.177Z,6.43
2018-07-26T04:39:12.543Z,6.30
2018-07-26T04:41:41.412Z,5.97
2018-07-26T04:44:10.407Z,5.50
2018-07-26T04:46:39.293Z,6.73
2018-07-26T04:49:08.105Z,6.40
2018-07-26T04:51:36.991Z,6.17
2018-07-26T04:54:05.841Z,5.50
2018-07-26T04:56:35.079Z,6.23
2018-07-26T04:59:04.792Z,5.33
2018-07-26T05:01:34.270Z,5.30
2018-07-26T05:04:03.033Z,5.27
2018-07-26T05:06:31.838Z,5.97
2018-07-26T05:09:01.336Z,5.07
2018-07-26T05:11:30.096Z,5.23
2018-07-26T05:13:58.851Z,5.17
2018-07-26T05:16:28.970Z,5.27
2018-07-26T05:18:57.750Z,4.80
2018-07-26T05:21:26.583Z,4.43
2018-07-26T05:23:55.881Z,4.77
2018-07-26T05:26:25.031Z,5.50
2018-07-26T05:28:53.798Z,4.23
2018-07-26T05:31:23.504Z,5.07
2018-07-26T05:33:52.228Z,4.10
2018-07-26T05:36:21.274Z,4.63
2018-07-26T05:38:51.115Z,4.10
2018-07-26T05:41:20.496Z,4.67
2018-07-26T05:43:49.517Z,3.87
2018-07-26T05:46:19.195Z,4.47
2018-07-26T05:48:48.424Z,3.50
2018-07-26T05:51:18.272Z,3.83
2018-07-26T05:53:47.327Z,3.77
2018-07-26T05:56:17.829Z,3.80
2018-07-26T05:58:47.835Z,3.67
2018-07-26T06:01:18.092Z,3.50
2018-07-26T06:03:48.304Z,3.53
2018-07-26T06:06:18.168Z,3.77
2018-07-26T06:08:48.589Z,3.47
2018-07-26T06:11:17.894Z,3.03
2018-07-26T06:13:47.104Z,3.43
2018-07-26T06:16:17.219Z,3.33
2018-07-26T06:18:46.204Z,3.63
2018-07-26T06:21:14.959Z,3.13
2018-07-26T06:23:44.584Z,3.50
2018-07-26T06:26:14.258Z,3.23
2018-07-26T06:28:43.062Z,3.30
2018-07-26T06:31:12.449Z,3.00
2018-07-26T06:33:41.270Z,3.33
2018-07-26T06:36:10.241Z,3.60
2018-07-26T06:38:39.580Z,3.50
2018-07-26T06:41:08.395Z,3.33
2018-07-26T06:43:37.183Z,3.53
2018-07-26T06:46:06.025Z,3.13
2018-07-26T06:48:34.835Z,3.40
2018-07-26T06:51:03.710Z,3.03
2018-07-26T06:53:32.505Z,3.77
2018-07-26T06:56:01.960Z,3.10
2018-07-26T06:58:31.376Z,4.30
2018-07-26T07:01:00.211Z,2.83
2018-07-26T07:03:29.753Z,3.00
2018-07-26T07:05:58.515Z,2.90
2018-07-26T07:08:28.277Z,2.97
2018-07-26T07:10:57.415Z,2.50
2018-07-26T07:13:26.236Z,2.70
2018-07-26T07:15:55.796Z,2.33
2018-07-26T07:18:24.583Z,3.00
2018-07-26T07:20:53.390Z,3.00
2018-07-26T07:23:23.063Z,2.37
2018-07-26T07:25:52.704Z,2.87
2018-07-26T07:28:21.515Z,2.63
2018-07-26T07:30:51.123Z,2.77
2018-07-26T07:33:20.049Z,2.43
2018-07-26T07:35:49.003Z,2.50
2018-07-26T07:38:18.243Z,2.57
2018-07-26T07:40:48.022Z,2.70
2018-07-26T07:43:17.042Z,2.40
2018-07-26T07:45:45.978Z,2.40
2018-07-26T07:48:14.845Z,2.40
2018-07-26T07:50:43.684Z,2.37
2018-07-26T07:53:12.935Z,2.50
2018-07-26T07:55:42.629Z,2.43
2018-07-26T07:58:11.416Z,2.20
2018-07-26T08:00:40.899Z,2.20
2018-07-26T08:03:10.466Z,2.37
2018-07-26T08:05:39.206Z,2.30
2018-07-26T08:08:09.356Z,2.40
2018-07-26T08:10:38.126Z,2.60
2018-07-26T08:13:07.126Z,2.30
2018-07-26T08:15:37.006Z,2.70
2018-07-26T08:18:06.443Z,2.40
2018-07-26T08:20:35.224Z,2.60
2018-07-26T08:23:04.855Z,2.30
2018-07-26T08:25:34.158Z,2.80
2018-07-26T08:28:02.954Z,2.50
2018-07-26T08:30:31.747Z,2.63
2018-07-26T08:33:01.188Z,2.23
2018-07-26T08:35:30.067Z,2.70
2018-07-26T08:37:58.863Z,2.00
2018-07-26T08:40:28.640Z,2.80
2018-07-26T08:42:57.446Z,2.07
2018-07-26T08:45:26.295Z,2.37
2018-07-26T08:47:55.147Z,2.73
2018-07-26T08:50:23.923Z,1.83
2018-07-26T08:52:52.764Z,2.13
2018-07-26T08:55:22.256Z,1.70
2018-07-26T08:57:51.019Z,2.07
2018-07-26T09:00:20.775Z,2.10
2018-07-26T09:02:50.612Z,2.80
2018-07-26T09:05:19.623Z,1.93
2018-07-26T09:07:49.502Z,2.30
2018-07-26T09:10:19.076Z,1.63
2018-07-26T09:12:48.259Z,2.20
2018-07-26T09:15:17.934Z,1.80
2018-07-26T09:17:47.148Z,2.23
2018-07-26T09:20:16.121Z,1.80
2018-07-26T09:22:45.500Z,2.07
2018-07-26T09:25:14.779Z,1.77
2018-07-26T09:27:43.538Z,2.10
2018-07-26T09:30:12.664Z,1.50
2018-07-26T09:32:43.008Z,2.10
2018-07-26T09:35:11.779Z,1.60
2018-07-26T09:37:40.567Z,1.70
2018-07-26T09:40:10.677Z,1.77
2018-07-26T09:42:39.440Z,1.67
2018-07-26T09:45:08.291Z,1.70
2018-07-26T09:47:37.176Z,1.60
2018-07-26T09:50:06.057Z,1.80
2018-07-26T09:52:35.344Z,1.70
2018-07-26T09:55:04.303Z,1.90
2018-07-26T09:57:33.685Z,1.47
2018-07-26T10:00:03.123Z,1.80
2018-07-26T10:02:32.519Z,1.80
2018-07-26T10:05:01.227Z,1.77
2018-07-26T10:07:30.476Z,1.80
2018-07-26T10:09:59.855Z,1.93
2018-07-26T10:12:28.625Z,1.53
2018-07-26T10:14:58.077Z,1.90
2018-07-26T10:17:26.811Z,1.73
2018-07-26T10:19:55.584Z,2.00
2018-07-26T10:22:25.123Z,1.43
2018-07-26T10:24:55.108Z,2.40
2018-07-26T10:27:23.881Z,1.73
2018-07-26T10:29:52.667Z,1.70
2018-07-26T10:32:22.019Z,2.23
2018-07-26T10:34:50.850Z,2.00
2018-07-26T10:37:19.646Z,2.77
2018-07-26T10:39:49.689Z,1.73
2018-07-26T10:42:18.811Z,2.10
2018-07-26T10:44:47.733Z,1.90
2018-07-26T10:47:16.891Z,2.07
2018-07-26T10:49:45.720Z,2.27
2018-07-26T10:52:14.987Z,2.03
2018-07-26T10:54:43.859Z,1.90
2018-07-26T10:57:13.215Z,2.27
2018-07-26T10:59:42.802Z,1.77
2018-07-26T11:02:12.988Z,1.90
2018-07-26T11:04:41.762Z,1.93
2018-07-26T11:07:10.702Z,1.97
2018-07-26T11:09:40.309Z,2.07
2018-07-26T11:12:09.099Z,1.90
2018-07-26T11:14:38.366Z,2.00
2018-07-26T11:17:07.158Z,1.87
2018-07-26T11:19:35.998Z,1.87
2018-07-26T11:22:05.631Z,1.73
2018-07-26T11:24:35.122Z,2.03
2018-07-26T11:27:03.970Z,2.10
2018-07-26T11:29:32.820Z,1.87
2018-07-26T11:32:02.633Z,1.80
2018-07-26T11:34:31.402Z,2.20
2018-07-26T11:37:30.789Z,1.97
2018-07-26T11:40:00.153Z,1.70
2018-07-26T11:42:28.936Z,2.00
2018-07-26T11:44:57.838Z,1.80
2018-07-26T11:47:26.663Z,1.70
2018-07-26T11:49:55.404Z,1.90
2018-07-26T11:52:24.328Z,1.90
2018-07-26T11:54:53.359Z,1.90
2018-07-26T11:57:22.775Z,1.80
2018-07-26T11:59:52.368Z,2.10
2018-07-26T12:02:21.768Z,1.80
2018-07-26T12:04:50.821Z,1.83
2018-07-26T12:07:19.682Z,1.80
2018-07-26T12:09:49.470Z,1.93
2018-07-26T12:12:18.937Z,1.87
2018-07-26T12:14:48.402Z,2.10
2018-07-26T12:17:17.426Z,2.00
2018-07-26T12:19:46.274Z,1.87
2018-07-26T12:22:15.712Z,1.97
2018-07-26T12:24:45.118Z,1.97
2018-07-26T12:27:13.934Z,2.17
2018-07-26T12:29:42.668Z,2.13
2018-07-26T12:32:12.169Z,1.90
2018-07-26T12:34:40.952Z,2.20
2018-07-26T12:37:09.719Z,1.90
2018-07-26T12:39:39.072Z,2.33
2018-07-26T12:42:07.978Z,2.00
2018-07-26T12:44:36.748Z,2.60
2018-07-26T12:47:05.877Z,2.10
2018-07-26T12:49:34.888Z,2.70
2018-07-26T12:52:03.810Z,2.30
2018-07-26T12:54:32.648Z,2.40
2018-07-26T12:57:02.405Z,2.27
2018-07-26T12:59:32.068Z,2.90
2018-07-26T13:02:01.564Z,2.10
2018-07-26T13:04:30.377Z,2.57
2018-07-26T13:06:59.169Z,2.40
2018-07-26T13:09:28.813Z,2.47
2018-07-26T13:11:57.622Z,2.07
2018-07-26T13:14:27.275Z,2.23
2018-07-26T13:16:56.076Z,2.43
2018-07-26T13:19:24.891Z,2.20
2018-07-26T13:21:54.338Z,2.43
2018-07-26T13:24:23.789Z,2.17
2018-07-26T13:26:52.542Z,2.50
2018-07-26T13:29:21.780Z,2.03
2018-07-26T13:31:51.387Z,2.37
2018-07-26T13:34:20.354Z,2.23
2018-07-26T13:36:49.360Z,2.10
2018-07-26T13:39:19.033Z,2.30
2018-07-26T13:41:48.108Z,2.47
2018-07-26T13:44:17.625Z,2.10
2018-07-26T13:46:46.533Z,2.47
2018-07-26T13:49:15.352Z,2.27
2018-07-26T13:51:44.346Z,2.13
2018-07-26T13:54:13.129Z,2.00
2018-07-26T13:56:42.607Z,2.30
2018-07-26T13:59:12.036Z,2.00
2018-07-26T14:01:41.412Z,2.33
2018-07-26T14:04:10.337Z,2.13
2018-07-26T14:06:39.071Z,2.83
2018-07-26T14:09:10.365Z,2.30
2018-07-26T14:11:39.175Z,2.60
2018-07-26T14:14:08.219Z,2.30
2018-07-26T14:16:38.170Z,3.20
2018-07-26T14:19:07.591Z,2.30
2018-07-26T14:21:36.505Z,3.00
2018-07-26T14:24:11.052Z,2.27
2018-07-26T14:26:39.842Z,2.57
2018-07-26T14:29:08.629Z,2.40
2018-07-26T14:31:38.337Z,2.83
2018-07-26T14:34:07.141Z,2.30
2018-07-26T14:36:35.958Z,2.80
2018-07-26T14:39:08.286Z,2.53
2018-07-26T14:41:37.159Z,2.90
2018-07-26T14:44:06.068Z,2.50
2018-07-26T14:46:34.863Z,2.50
2018-07-26T14:49:04.697Z,2.33
2018-07-26T14:51:33.871Z,2.57
2018-07-26T14:54:02.751Z,2.93
2018-07-26T14:56:32.137Z,2.80
2018-07-26T14:59:01.665Z,2.40
2018-07-26T15:01:31.075Z,2.47
2018-07-26T15:03:59.821Z,2.43
2018-07-26T15:06:28.584Z,2.30
2018-07-26T15:08:58.014Z,2.10
2018-07-26T15:11:26.803Z,2.43
2018-07-26T15:13:55.506Z,2.13
2018-07-26T15:16:25.091Z,2.10
2018-07-26T15:18:53.866Z,2.53
2018-07-26T15:21:22.594Z,2.00
2018-07-26T15:23:52.359Z,2.10
2018-07-26T15:26:21.168Z,1.83
2018-07-26T15:28:50.269Z,2.40
2018-07-26T15:31:19.942Z,2.10
2018-07-26T15:33:49.558Z,2.27
2018-07-26T15:36:18.607Z,2.30
2018-07-26T15:38:48.482Z,2.50
2018-07-26T15:41:17.510Z,2.20
2018-07-26T15:43:46.322Z,2.37
2018-07-26T15:46:15.187Z,2.27
2018-07-26T15:48:43.969Z,2.17
2018-07-26T15:51:13.025Z,2.53
2018-07-26T15:53:42.085Z,2.37
2018-07-26T15:56:12.073Z,2.20
2018-07-26T15:58:41.705Z,2.27
2018-07-26T16:01:11.483Z,2.75
2018-07-26T16:03:40.846Z,2.15
2018-07-26T16:06:09.580Z,2.22
2018-07-26T16:08:38.954Z,1.90
2018-07-26T16:11:07.727Z,3.10
2018-07-26T16:13:36.508Z,1.95
2018-07-26T16:16:06.031Z,2.58
2018-07-26T16:18:34.803Z,2.35
2018-07-26T16:21:03.594Z,2.70
2018-07-26T16:23:33.097Z,1.90
2018-07-26T16:26:02.573Z,3.20
2018-07-26T16:28:31.346Z,2.33
2018-07-26T16:31:00.746Z,2.35
2018-07-26T16:33:29.511Z,2.20
2018-07-26T16:35:58.523Z,3.30
2018-07-26T16:38:27.491Z,2.40
2018-07-26T16:40:56.952Z,2.27
2018-07-26T16:43:25.691Z,2.12
2018-07-26T16:45:54.480Z,2.60
2018-07-26T16:48:23.259Z,2.10
2018-07-26T16:50:52.491Z,2.65
2018-07-26T16:53:21.428Z,2.08
2018-07-26T16:55:51.132Z,2.30
2018-07-26T16:58:21.442Z,2.50
2018-07-26T17:00:50.458Z,2.10
2018-07-26T17:03:20.192Z,2.70
2018-07-26T17:05:49.200Z,2.27
2018-07-26T17:08:19.055Z,2.50
2018-07-26T17:10:47.930Z,2.30
2018-07-26T17:13:16.756Z,2.75
2018-07-26T17:15:46.388Z,2.22
2018-07-26T17:18:15.279Z,2.42
2018-07-26T17:20:44.171Z,2.30
2018-07-26T17:23:13.783Z,2.52
2018-07-26T17:25:43.065Z,1.92
2018-07-26T17:28:12.086Z,2.20
2018-07-26T17:30:40.824Z,1.98
2018-07-26T17:33:10.142Z,2.15
2018-07-26T17:35:38.960Z,2.30
2018-07-26T17:38:07.683Z,2.30
2018-07-26T17:40:37.176Z,2.00
2018-07-26T17:43:05.903Z,2.42
2018-07-26T17:45:34.726Z,2.40
2018-07-26T17:48:03.519Z,2.37
2018-07-26T17:50:32.255Z,2.50
2018-07-26T17:53:01.352Z,2.20
2018-07-26T17:55:31.026Z,2.30
2018-07-26T17:57:59.800Z,2.50
2018-07-26T18:00:29.380Z,2.50
2018-07-26T18:02:58.987Z,2.30
2018-07-26T18:05:27.710Z,2.62
2018-07-26T18:07:57.152Z,2.30
2018-07-26T18:10:25.863Z,2.58
2018-07-26T18:12:54.631Z,2.50
2018-07-26T18:15:24.056Z,2.60
2018-07-26T18:17:52.784Z,2.60
2018-07-26T18:20:21.524Z,2.30
2018-07-26T18:22:51.327Z,2.20
2018-07-26T18:25:20.842Z,2.73
2018-07-26T18:27:49.923Z,2.70
2018-07-26T18:30:19.847Z,3.10
2018-07-26T18:32:49.949Z,2.37
2018-07-26T18:35:20.890Z,2.67
2018-07-26T18:37:49.983Z,2.43
2018-07-26T18:40:19.648Z,2.93
2018-07-26T18:42:49.416Z,3.30
2018-07-26T18:45:18.437Z,3.37
2018-07-26T18:47:47.350Z,3.47
2018-07-26T18:50:16.150Z,3.00
2018-07-26T18:52:45.030Z,3.60
2018-07-26T18:55:14.163Z,3.33
2018-07-26T18:57:43.974Z,3.60
2018-07-26T19:00:14.017Z,2.90
2018-07-26T19:02:43.820Z,3.33
2018-07-26T19:05:12.560Z,3.23
2018-07-26T19:07:41.319Z,3.70
2018-07-26T19:10:11.961Z,3.30
2018-07-26T19:12:40.831Z,3.60
2018-07-26T19:15:11.844Z,2.90
2018-07-26T19:17:40.620Z,3.70
2018-07-26T19:20:10.755Z,3.57
2018-07-26T19:22:40.126Z,3.50
2018-07-26T19:25:10.685Z,2.83
2018-07-26T19:27:39.646Z,3.47
2018-07-26T19:30:11.244Z,3.47
2018-07-26T19:32:40.704Z,3.47
2018-07-26T19:35:09.467Z,3.53
2018-07-26T19:37:38.277Z,3.50
2018-07-26T19:40:09.149Z,3.23
2018-07-26T19:42:38.671Z,3.83
2018-07-26T19:45:08.303Z,3.47
2018-07-26T19:47:37.401Z,3.77
2018-07-26T19:50:06.289Z,3.50
2018-07-26T19:52:35.392Z,3.40
2018-07-26T19:55:04.439Z,3.23
2018-07-26T19:57:33.990Z,3.93
2018-07-26T20:00:03.554Z,4.67
2018-07-26T20:02:32.853Z,3.73
2018-07-26T20:05:01.906Z,3.60
2018-07-26T20:07:30.717Z,3.37
2018-07-26T20:10:00.373Z,4.07
2018-07-26T20:12:29.255Z,3.57
2018-07-26T20:14:58.860Z,3.60
2018-07-26T20:17:27.685Z,3.47
2018-07-26T20:19:56.444Z,3.40
2018-07-26T20:22:26.016Z,3.63
2018-07-26T20:24:55.354Z,3.37
2018-07-26T20:27:24.163Z,3.33
2018-07-26T20:29:52.911Z,4.20
2018-07-26T20:32:22.098Z,3.93
2018-07-26T20:34:51.053Z,4.10
2018-07-26T20:37:20.221Z,3.70
2018-07-26T20:39:50.186Z,3.90
2018-07-26T20:42:19.251Z,3.53
2018-07-26T20:44:48.107Z,3.47
2018-07-26T20:47:16.929Z,3.50
2018-07-26T20:49:45.731Z,4.37
2018-07-26T20:52:14.663Z,4.17
2018-07-26T20:54:43.447Z,3.57
2018-07-26T20:57:12.974Z,3.60
2018-07-26T20:59:42.639Z,3.57
2018-07-26T21:02:12.030Z,3.90
2018-07-26T21:04:40.848Z,3.40
2018-07-26T21:07:09.710Z,3.43
2018-07-26T21:09:39.020Z,3.03
2018-07-26T21:12:07.858Z,4.03
2018-07-26T21:14:37.132Z,3.20
2018-07-26T21:17:06.051Z,4.30
2018-07-26T21:19:34.800Z,3.73
2018-07-26T21:22:04.591Z,4.23
2018-07-26T21:24:34.085Z,3.10
2018-07-26T21:27:02.950Z,3.70
2018-07-26T21:29:31.712Z,3.47
2018-07-26T21:32:01.661Z,4.47
2018-07-26T21:34:30.495Z,3.50
2018-07-26T21:36:59.307Z,3.67
2018-07-26T21:39:28.564Z,3.40
2018-07-26T21:41:57.657Z,4.00
2018-07-26T21:44:26.451Z,3.80
2018-07-26T21:46:55.283Z,3.87
2018-07-26T21:49:24.341Z,4.00
2018-07-26T21:51:53.365Z,3.70
2018-07-26T21:54:22.245Z,3.73
2018-07-26T21:56:51.960Z,4.00
2018-07-26T21:59:21.694Z,4.03
2018-07-26T22:01:51.897Z,4.07
2018-07-26T22:04:20.891Z,3.87
2018-07-26T22:06:52.470Z,3.90
2018-07-26T22:09:21.692Z,3.83
2018-07-26T22:11:50.764Z,4.03
2018-07-26T22:14:20.442Z,4.10
2018-07-26T22:16:50.123Z,3.70
2018-07-26T22:19:19.212Z,4.70
2018-07-26T22:21:49.359Z,4.23
2018-07-26T22:24:18.878Z,5.13
2018-07-26T22:26:47.706Z,3.90
2018-07-26T22:29:16.516Z,4.50
2018-07-26T22:31:46.028Z,4.50
2018-07-26T22:34:14.811Z,5.33
2018-07-26T22:36:43.620Z,4.23
2018-07-26T22:39:13.026Z,4.57
2018-07-26T22:41:42.153Z,4.50
2018-07-26T22:44:10.937Z,4.37
2018-07-26T22:46:39.751Z,4.33
2018-07-26T22:49:08.639Z,3.80
2018-07-26T22:51:38.656Z,4.80
2018-07-26T22:54:07.617Z,4.30
2018-07-26T22:56:37.109Z,4.80
2018-07-26T22:59:07.350Z,4.90
2018-07-26T23:01:36.754Z,5.03
2018-07-26T23:04:05.627Z,4.07
2018-07-26T23:06:34.381Z,4.70
2018-07-26T23:09:04.192Z,4.43
2018-07-26T23:11:33.012Z,5.07
2018-07-26T23:14:01.823Z,4.70
2018-07-26T23:16:31.186Z,5.37
2018-07-26T23:18:59.938Z,4.30
2018-07-26T23:21:28.726Z,5.03
2018-07-26T23:23:58.663Z,4.53
2018-07-26T23:26:28.520Z,4.90
2018-07-26T23:28:57.323Z,4.80
2018-07-26T23:31:26.690Z,4.80
2018-07-26T23:33:55.582Z,4.60
2018-07-26T23:36:24.395Z,4.83
2018-07-26T23:38:54.128Z,4.90
2018-07-26T23:41:22.943Z,4.83
2018-07-26T23:43:51.780Z,4.90
2018-07-26T23:46:21.237Z,4.40
2018-07-26T23:48:50.486Z,4.70
2018-07-26T23:51:19.718Z,4.30
2018-07-26T23:53:48.862Z,4.60
2018-07-26T23:56:19.339Z,4.67
2018-07-26T23:58:49.315Z,4.77
